sensor_id;sensor_type;location;lat;lon;timestamp;pressure;altitude;pressure_sealevel;temperature;humidity
76611;BME280;65503;48.534;9.062;2023-11-19T00:01:33;96955.97;;;10.07;76.89
76611;BME280;65503;48.534;9.062;2023-11-19T00:04:00;96954.91;;;9.97;77.51
76611;BME280;65503;48.534;9.062;2023-11-19T00:06:27;96954.19;;;9.78;78.50
76611;BME280;65503;48.534;9.062;2023-11-19T00:08:54;96950.03;;;9.70;78.80
76611;BME280;65503;48.534;9.062;2023-11-19T00:11:21;96947.09;;;9.78;78.70
76611;BME280;65503;48.534;9.062;2023-11-19T00:13:47;96942.28;;;9.75;78.63
76611;BME280;65503;48.534;9.062;2023-11-19T00:16:14;96944.00;;;9.81;78.43
76611;BME280;65503;48.534;9.062;2023-11-19T00:18:43;96928.81;;;9.83;78.54
76611;BME280;65503;48.534;9.062;2023-11-19T00:21:09;96922.72;;;10.13;78.19
76611;BME280;65503;48.534;9.062;2023-11-19T00:23:37;96926.56;;;9.99;77.99
76611;BME280;65503;48.534;9.062;2023-11-19T00:26:04;96930.47;;;10.08;78.03
76611;BME280;65503;48.534;9.062;2023-11-19T00:28:33;96929.53;;;10.14;77.98
76611;BME280;65503;48.534;9.062;2023-11-19T00:31:00;96918.22;;;9.90;78.53
76611;BME280;65503;48.534;9.062;2023-11-19T00:33:27;96928.63;;;9.85;79.08
76611;BME280;65503;48.534;9.062;2023-11-19T00:35:54;96924.78;;;9.69;80.23
76611;BME280;65503;48.534;9.062;2023-11-19T00:38:22;96936.63;;;9.90;79.34
76611;BME280;65503;48.534;9.062;2023-11-19T00:40:49;96925.63;;;9.81;79.41
76611;BME280;65503;48.534;9.062;2023-11-19T00:43:15;96910.25;;;9.97;79.35
76611;BME280;65503;48.534;9.062;2023-11-19T00:45:42;96904.97;;;9.85;79.95
76611;BME280;65503;48.534;9.062;2023-11-19T00:48:09;96917.19;;;9.79;80.34
76611;BME280;65503;48.534;9.062;2023-11-19T00:50:37;96906.19;;;9.82;80.05
76611;BME280;65503;48.534;9.062;2023-11-19T00:53:05;96904.28;;;9.89;80.12
76611;BME280;65503;48.534;9.062;2023-11-19T00:55:32;96909.66;;;9.94;79.84
76611;BME280;65503;48.534;9.062;2023-11-19T00:57:58;96901.41;;;10.03;79.61
76611;BME280;65503;48.534;9.062;2023-11-19T01:00:25;96895.94;;;10.16;78.81
76611;BME280;65503;48.534;9.062;2023-11-19T01:02:53;96896.19;;;10.26;78.45
76611;BME280;65503;48.534;9.062;2023-11-19T01:05:20;96880.16;;;10.16;79.24
76611;BME280;65503;48.534;9.062;2023-11-19T01:07:49;96895.19;;;10.27;78.90
76611;BME280;65503;48.534;9.062;2023-11-19T01:10:16;96898.28;;;10.24;79.15
76611;BME280;65503;48.534;9.062;2023-11-19T01:12:43;96894.59;;;10.48;78.47
76611;BME280;65503;48.534;9.062;2023-11-19T01:15:09;96891.41;;;10.23;78.92
76611;BME280;65503;48.534;9.062;2023-11-19T01:17:37;96905.00;;;10.43;78.47
76611;BME280;65503;48.534;9.062;2023-11-19T01:20:04;96891.19;;;10.36;78.48
76611;BME280;65503;48.534;9.062;2023-11-19T01:22:34;96887.97;;;10.34;79.09
76611;BME280;65503;48.534;9.062;2023-11-19T01:25:01;96882.25;;;10.37;79.30
76611;BME280;65503;48.534;9.062;2023-11-19T01:27:28;96879.75;;;10.42;78.96
76611;BME280;65503;48.534;9.062;2023-11-19T01:29:54;96870.13;;;10.59;78.49
76611;BME280;65503;48.534;9.062;2023-11-19T01:32:21;96860.03;;;10.56;78.50
76611;BME280;65503;48.534;9.062;2023-11-19T01:34:47;96858.19;;;10.68;78.10
76611;BME280;65503;48.534;9.062;2023-11-19T01:37:14;96867.13;;;10.56;78.43
76611;BME280;65503;48.534;9.062;2023-11-19T01:39:44;96862.81;;;10.50;79.06
76611;BME280;65503;48.534;9.062;2023-11-19T01:42:11;96849.56;;;10.33;80.08
76611;BME280;65503;48.534;9.062;2023-11-19T01:44:38;96856.41;;;10.34;79.83
76611;BME280;65503;48.534;9.062;2023-11-19T01:47:05;96858.25;;;10.22;80.42
76611;BME280;65503;48.534;9.062;2023-11-19T01:49:32;96856.41;;;10.34;80.32
76611;BME280;65503;48.534;9.062;2023-11-19T01:51:59;96861.88;;;10.56;79.61
76611;BME280;65503;48.534;9.062;2023-11-19T01:54:28;96860.53;;;10.07;81.43
76611;BME280;65503;48.534;9.062;2023-11-19T01:56:54;96866.22;;;10.50;80.05
76611;BME280;65503;48.534;9.062;2023-11-19T01:59:23;96865.09;;;10.46;80.18
76611;BME280;65503;48.534;9.062;2023-11-19T02:01:54;96870.81;;;10.43;80.18
76611;BME280;65503;48.534;9.062;2023-11-19T02:04:24;96861.44;;;10.12;81.63
76611;BME280;65503;48.534;9.062;2023-11-19T02:06:54;96850.69;;;10.37;81.32
76611;BME280;65503;48.534;9.062;2023-11-19T02:09:22;96839.59;;;10.47;80.55
76611;BME280;65503;48.534;9.062;2023-11-19T02:11:49;96841.78;;;10.38;80.92
76611;BME280;65503;48.534;9.062;2023-11-19T02:14:17;96842.53;;;10.62;80.26
76611;BME280;65503;48.534;9.062;2023-11-19T02:16:44;96843.22;;;10.69;79.57
76611;BME280;65503;48.534;9.062;2023-11-19T02:19:11;96852.16;;;10.56;80.16
76611;BME280;65503;48.534;9.062;2023-11-19T02:21:37;96853.38;;;10.65;79.93
76611;BME280;65503;48.534;9.062;2023-11-19T02:24:06;96852.94;;;10.68;80.10
76611;BME280;65503;48.534;9.062;2023-11-19T02:26:41;96843.94;;;10.93;79.00
76611;BME280;65503;48.534;9.062;2023-11-19T02:29:11;96845.63;;;10.70;79.38
76611;BME280;65503;48.534;9.062;2023-11-19T02:31:38;96844.22;;;10.80;79.64
76611;BME280;65503;48.534;9.062;2023-11-19T02:34:04;96841.13;;;10.71;80.12
76611;BME280;65503;48.534;9.062;2023-11-19T02:36:32;96831.94;;;10.85;79.73
76611;BME280;65503;48.534;9.062;2023-11-19T02:38:59;96817.22;;;10.72;80.15
76611;BME280;65503;48.534;9.062;2023-11-19T02:41:26;96827.38;;;10.81;80.11
76611;BME280;65503;48.534;9.062;2023-11-19T02:43:52;96823.81;;;10.87;80.37
76611;BME280;65503;48.534;9.062;2023-11-19T02:46:20;96821.47;;;11.02;79.57
76611;BME280;65503;48.534;9.062;2023-11-19T02:48:46;96833.06;;;10.89;79.53
76611;BME280;65503;48.534;9.062;2023-11-19T02:51:13;96836.03;;;10.93;80.07
76611;BME280;65503;48.534;9.062;2023-11-19T02:53:39;96830.03;;;11.09;79.52
76611;BME280;65503;48.534;9.062;2023-11-19T02:56:07;96826.38;;;11.10;79.40
76611;BME280;65503;48.534;9.062;2023-11-19T02:58:46;96839.81;;;10.97;80.13
76611;BME280;65503;48.534;9.062;2023-11-19T03:01:13;96823.69;;;10.93;80.26
76611;BME280;65503;48.534;9.062;2023-11-19T03:03:50;96823.09;;;11.19;79.44
76611;BME280;65503;48.534;9.062;2023-11-19T03:06:24;96820.88;;;11.28;79.11
76611;BME280;65503;48.534;9.062;2023-11-19T03:08:50;96818.34;;;11.33;78.73
76611;BME280;65503;48.534;9.062;2023-11-19T03:11:17;96823.94;;;11.08;80.11
76611;BME280;65503;48.534;9.062;2023-11-19T03:13:43;96831.31;;;11.23;79.59
76611;BME280;65503;48.534;9.062;2023-11-19T03:16:10;96838.09;;;11.19;80.07
76611;BME280;65503;48.534;9.062;2023-11-19T03:18:38;96839.53;;;11.10;80.33
76611;BME280;65503;48.534;9.062;2023-11-19T03:21:08;96847.53;;;11.15;80.18
76611;BME280;65503;48.534;9.062;2023-11-19T03:23:35;96851.94;;;10.98;80.91
76611;BME280;65503;48.534;9.062;2023-11-19T03:26:02;96852.59;;;11.05;81.07
76611;BME280;65503;48.534;9.062;2023-11-19T03:28:32;96848.09;;;11.05;80.85
76611;BME280;65503;48.534;9.062;2023-11-19T03:30:59;96848.16;;;11.22;80.58
76611;BME280;65503;48.534;9.062;2023-11-19T03:33:26;96849.78;;;11.40;79.80
76611;BME280;65503;48.534;9.062;2023-11-19T03:35:56;96833.53;;;11.59;79.20
76611;BME280;65503;48.534;9.062;2023-11-19T03:38:23;96836.31;;;11.70;78.56
76611;BME280;65503;48.534;9.062;2023-11-19T03:40:51;96839.53;;;11.55;78.79
76611;BME280;65503;48.534;9.062;2023-11-19T03:43:17;96842.50;;;11.75;78.42
76611;BME280;65503;48.534;9.062;2023-11-19T03:45:45;96823.38;;;11.68;78.60
76611;BME280;65503;48.534;9.062;2023-11-19T03:48:13;96831.53;;;11.67;78.65
76611;BME280;65503;48.534;9.062;2023-11-19T03:50:42;96830.19;;;11.81;78.36
76611;BME280;65503;48.534;9.062;2023-11-19T03:53:09;96838.69;;;11.83;78.24
76611;BME280;65503;48.534;9.062;2023-11-19T03:55:35;96839.91;;;11.64;79.16
76611;BME280;65503;48.534;9.062;2023-11-19T03:58:02;96828.25;;;11.59;78.86
76611;BME280;65503;48.534;9.062;2023-11-19T04:00:29;96838.69;;;11.83;78.83
76611;BME280;65503;48.534;9.062;2023-11-19T04:02:55;96839.63;;;11.77;78.58
76611;BME280;65503;48.534;9.062;2023-11-19T04:05:22;96835.69;;;11.63;79.01
76611;BME280;65503;48.534;9.062;2023-11-19T04:07:49;96823.44;;;11.56;79.80
76611;BME280;65503;48.534;9.062;2023-11-19T04:10:15;96844.72;;;11.67;79.60
76611;BME280;65503;48.534;9.062;2023-11-19T04:12:44;96836.75;;;11.62;79.72
76611;BME280;65503;48.534;9.062;2023-11-19T04:15:11;96814.66;;;11.68;79.45
76611;BME280;65503;48.534;9.062;2023-11-19T04:17:38;96825.56;;;11.88;78.65
76611;BME280;65503;48.534;9.062;2023-11-19T04:20:05;96833.41;;;11.83;79.06
76611;BME280;65503;48.534;9.062;2023-11-19T04:22:32;96837.31;;;11.97;78.67
76611;BME280;65503;48.534;9.062;2023-11-19T04:24:59;96847.91;;;12.02;78.54
76611;BME280;65503;48.534;9.062;2023-11-19T04:27:25;96833.41;;;11.99;78.79
76611;BME280;65503;48.534;9.062;2023-11-19T04:29:52;96845.28;;;12.02;78.55
76611;BME280;65503;48.534;9.062;2023-11-19T04:32:20;96846.66;;;11.88;79.08
76611;BME280;65503;48.534;9.062;2023-11-19T04:34:47;96850.19;;;11.77;79.55
76611;BME280;65503;48.534;9.062;2023-11-19T04:37:14;96848.19;;;11.84;79.59
76611;BME280;65503;48.534;9.062;2023-11-19T04:39:40;96855.59;;;12.04;78.64
76611;BME280;65503;48.534;9.062;2023-11-19T04:42:07;96856.53;;;12.14;78.64
76611;BME280;65503;48.534;9.062;2023-11-19T04:44:33;96858.94;;;12.16;78.44
76611;BME280;65503;48.534;9.062;2023-11-19T04:47:00;96855.19;;;12.28;78.36
76611;BME280;65503;48.534;9.062;2023-11-19T04:49:27;96856.97;;;12.45;77.57
76611;BME280;65503;48.534;9.062;2023-11-19T04:51:54;96871.84;;;12.51;77.22
76611;BME280;65503;48.534;9.062;2023-11-19T04:54:21;96867.41;;;12.34;77.90
76611;BME280;65503;48.534;9.062;2023-11-19T04:56:47;96846.28;;;12.34;77.96
76611;BME280;65503;48.534;9.062;2023-11-19T04:59:15;96852.88;;;12.15;78.48
76611;BME280;65503;48.534;9.062;2023-11-19T05:01:45;96859.50;;;12.34;78.09
76611;BME280;65503;48.534;9.062;2023-11-19T05:04:13;96866.56;;;12.51;77.29
76611;BME280;65503;48.534;9.062;2023-11-19T05:06:40;96864.69;;;12.29;78.02
76611;BME280;65503;48.534;9.062;2023-11-19T05:09:06;96860.22;;;12.13;78.84
76611;BME280;65503;48.534;9.062;2023-11-19T05:11:38;96859.06;;;12.42;78.03
76611;BME280;65503;48.534;9.062;2023-11-19T05:14:17;96858.88;;;12.49;77.82
76611;BME280;65503;48.534;9.062;2023-11-19T05:16:45;96852.81;;;12.49;77.72
76611;BME280;65503;48.534;9.062;2023-11-19T05:19:11;96842.38;;;12.59;77.14
76611;BME280;65503;48.534;9.062;2023-11-19T05:21:38;96847.91;;;12.79;76.39
76611;BME280;65503;48.534;9.062;2023-11-19T05:24:05;96848.91;;;12.73;76.70
76611;BME280;65503;48.534;9.062;2023-11-19T05:26:31;96850.38;;;12.64;76.84
76611;BME280;65503;48.534;9.062;2023-11-19T05:28:58;96852.22;;;12.85;76.12
76611;BME280;65503;48.534;9.062;2023-11-19T05:31:24;96849.06;;;12.88;76.21
76611;BME280;65503;48.534;9.062;2023-11-19T05:33:50;96853.69;;;12.76;76.96
76611;BME280;65503;48.534;9.062;2023-11-19T05:36:18;96860.38;;;12.83;76.75
76611;BME280;65503;48.534;9.062;2023-11-19T05:38:44;96867.56;;;12.88;76.78
76611;BME280;65503;48.534;9.062;2023-11-19T05:41:11;96859.03;;;12.81;77.15
76611;BME280;65503;48.534;9.062;2023-11-19T05:43:38;96857.84;;;12.72;77.57
76611;BME280;65503;48.534;9.062;2023-11-19T05:46:07;96855.91;;;12.84;77.00
76611;BME280;65503;48.534;9.062;2023-11-19T05:48:45;96852.69;;;12.82;77.23
76611;BME280;65503;48.534;9.062;2023-11-19T05:51:13;96840.34;;;12.88;77.12
76611;BME280;65503;48.534;9.062;2023-11-19T05:53:41;96840.78;;;12.79;77.15
76611;BME280;65503;48.534;9.062;2023-11-19T05:56:08;96848.78;;;12.63;78.23
76611;BME280;65503;48.534;9.062;2023-11-19T05:58:36;96854.41;;;12.50;78.42
76611;BME280;65503;48.534;9.062;2023-11-19T06:01:04;96853.50;;;12.61;78.59
76611;BME280;65503;48.534;9.062;2023-11-19T06:03:31;96848.66;;;12.53;79.12
76611;BME280;65503;48.534;9.062;2023-11-19T06:05:57;96859.47;;;12.73;78.18
76611;BME280;65503;48.534;9.062;2023-11-19T06:08:24;96859.69;;;12.93;77.57
76611;BME280;65503;48.534;9.062;2023-11-19T06:10:53;96862.38;;;12.55;78.71
76611;BME280;65503;48.534;9.062;2023-11-19T06:13:19;96864.69;;;12.68;78.43
76611;BME280;65503;48.534;9.062;2023-11-19T06:15:49;96862.84;;;12.90;77.62
76611;BME280;65503;48.534;9.062;2023-11-19T06:18:17;96852.09;;;12.97;77.45
76611;BME280;65503;48.534;9.062;2023-11-19T06:20:46;96856.47;;;12.86;77.77
76611;BME280;65503;48.534;9.062;2023-11-19T06:23:13;96857.13;;;12.98;77.49
76611;BME280;65503;48.534;9.062;2023-11-19T06:25:40;96852.03;;;12.70;78.83
76611;BME280;65503;48.534;9.062;2023-11-19T06:28:06;96855.41;;;12.87;78.08
76611;BME280;65503;48.534;9.062;2023-11-19T06:30:51;96852.78;;;12.87;78.33
76611;BME280;65503;48.534;9.062;2023-11-19T06:33:18;96850.72;;;12.94;77.79
76611;BME280;65503;48.534;9.062;2023-11-19T06:35:44;96853.00;;;13.07;77.20
76611;BME280;65503;48.534;9.062;2023-11-19T06:38:11;96862.09;;;12.95;77.79
76611;BME280;65503;48.534;9.062;2023-11-19T06:40:38;96862.00;;;13.11;77.28
76611;BME280;65503;48.534;9.062;2023-11-19T06:43:04;96865.88;;;13.20;76.78
76611;BME280;65503;48.534;9.062;2023-11-19T06:45:31;96866.91;;;13.19;76.69
76611;BME280;65503;48.534;9.062;2023-11-19T06:48:01;96875.00;;;13.13;76.97
76611;BME280;65503;48.534;9.062;2023-11-19T06:50:30;96882.06;;;13.07;77.51
76611;BME280;65503;48.534;9.062;2023-11-19T06:52:56;96884.09;;;13.22;76.90
76611;BME280;65503;48.534;9.062;2023-11-19T06:55:23;96872.66;;;13.16;77.10
76611;BME280;65503;48.534;9.062;2023-11-19T06:57:49;96885.69;;;13.23;76.82
76611;BME280;65503;48.534;9.062;2023-11-19T07:00:16;96880.13;;;13.19;76.98
76611;BME280;65503;48.534;9.062;2023-11-19T07:02:44;96880.22;;;13.30;76.81
76611;BME280;65503;48.534;9.062;2023-11-19T07:05:11;96872.84;;;13.32;76.64
76611;BME280;65503;48.534;9.062;2023-11-19T07:07:39;96874.44;;;13.33;76.84
76611;BME280;65503;48.534;9.062;2023-11-19T07:10:07;96874.31;;;13.22;77.29
76611;BME280;65503;48.534;9.062;2023-11-19T07:12:36;96876.81;;;13.34;76.82
76611;BME280;65503;48.534;9.062;2023-11-19T07:15:03;96886.72;;;13.44;76.57
76611;BME280;65503;48.534;9.062;2023-11-19T07:17:30;96881.44;;;13.44;76.54
76611;BME280;65503;48.534;9.062;2023-11-19T07:19:57;96887.81;;;13.48;76.36
76611;BME280;65503;48.534;9.062;2023-11-19T07:22:26;96876.03;;;13.34;76.97
76611;BME280;65503;48.534;9.062;2023-11-19T07:24:53;96879.03;;;13.42;76.65
76611;BME280;65503;48.534;9.062;2023-11-19T07:27:19;96878.31;;;13.52;76.37
76611;BME280;65503;48.534;9.062;2023-11-19T07:29:46;96889.97;;;13.56;76.38
76611;BME280;65503;48.534;9.062;2023-11-19T07:32:12;96909.34;;;13.61;76.02
76611;BME280;65503;48.534;9.062;2023-11-19T07:34:40;96905.44;;;13.69;75.88
76611;BME280;65503;48.534;9.062;2023-11-19T07:37:06;96915.75;;;13.65;75.52
76611;BME280;65503;48.534;9.062;2023-11-19T07:39:33;96907.06;;;13.70;75.84
76611;BME280;65503;48.534;9.062;2023-11-19T07:42:01;96906.06;;;13.76;75.52
76611;BME280;65503;48.534;9.062;2023-11-19T07:44:28;96915.31;;;13.79;75.46
76611;BME280;65503;48.534;9.062;2023-11-19T07:46:54;96913.00;;;13.82;75.36
76611;BME280;65503;48.534;9.062;2023-11-19T07:49:21;96914.03;;;13.81;75.33
76611;BME280;65503;48.534;9.062;2023-11-19T07:51:47;96922.00;;;13.86;74.74
76611;BME280;65503;48.534;9.062;2023-11-19T07:54:14;96916.97;;;13.85;74.86
76611;BME280;65503;48.534;9.062;2023-11-19T07:56:40;96907.53;;;13.94;74.51
76611;BME280;65503;48.534;9.062;2023-11-19T07:59:07;96919.72;;;13.95;74.70
76611;BME280;65503;48.534;9.062;2023-11-19T08:01:33;96916.31;;;13.99;74.40
76611;BME280;65503;48.534;9.062;2023-11-19T08:04:00;96923.78;;;14.07;73.91
76611;BME280;65503;48.534;9.062;2023-11-19T08:06:28;96921.97;;;14.13;73.65
76611;BME280;65503;48.534;9.062;2023-11-19T08:08:55;96916.94;;;14.12;73.57
76611;BME280;65503;48.534;9.062;2023-11-19T08:11:21;96908.44;;;14.10;73.77
76611;BME280;65503;48.534;9.062;2023-11-19T08:13:48;96921.13;;;14.07;73.65
76611;BME280;65503;48.534;9.062;2023-11-19T08:16:14;96912.69;;;14.11;73.69
76611;BME280;65503;48.534;9.062;2023-11-19T08:18:42;96910.53;;;14.07;73.73
76611;BME280;65503;48.534;9.062;2023-11-19T08:21:10;96899.84;;;13.92;74.06
76611;BME280;65503;48.534;9.062;2023-11-19T08:23:36;96904.19;;;14.08;73.70
76611;BME280;65503;48.534;9.062;2023-11-19T08:26:04;96910.38;;;14.19;73.29
76611;BME280;65503;48.534;9.062;2023-11-19T08:28:31;96909.66;;;14.29;72.79
76611;BME280;65503;48.534;9.062;2023-11-19T08:31:01;96899.53;;;14.21;72.71
76611;BME280;65503;48.534;9.062;2023-11-19T08:33:27;96903.78;;;14.22;72.85
76611;BME280;65503;48.534;9.062;2023-11-19T08:35:54;96895.06;;;13.89;74.17
76611;BME280;65503;48.534;9.062;2023-11-19T08:38:20;96907.91;;;14.07;73.30
76611;BME280;65503;48.534;9.062;2023-11-19T08:40:50;96915.66;;;14.19;72.92
76611;BME280;65503;48.534;9.062;2023-11-19T08:43:16;96909.19;;;14.00;73.04
76611;BME280;65503;48.534;9.062;2023-11-19T08:45:43;96909.66;;;14.29;72.61
76611;BME280;65503;48.534;9.062;2023-11-19T08:48:10;96905.59;;;14.53;71.99
76611;BME280;65503;48.534;9.062;2023-11-19T08:50:36;96893.44;;;14.52;71.12
76611;BME280;65503;48.534;9.062;2023-11-19T08:53:03;96902.66;;;14.97;70.47
76611;BME280;65503;48.534;9.062;2023-11-19T08:55:33;96893.78;;;15.38;69.67
76611;BME280;65503;48.534;9.062;2023-11-19T08:57:59;96895.47;;;15.54;68.86
76611;BME280;65503;48.534;9.062;2023-11-19T09:00:26;96894.91;;;15.57;68.84
76611;BME280;65503;48.534;9.062;2023-11-19T09:02:52;96903.44;;;15.80;68.47
76611;BME280;65503;48.534;9.062;2023-11-19T09:05:19;96898.03;;;15.49;68.41
76611;BME280;65503;48.534;9.062;2023-11-19T09:07:46;96908.19;;;15.57;68.70
76611;BME280;65503;48.534;9.062;2023-11-19T09:10:12;96910.66;;;15.07;69.67
76611;BME280;65503;48.534;9.062;2023-11-19T09:12:39;96899.13;;;15.43;69.37
76611;BME280;65503;48.534;9.062;2023-11-19T09:15:06;96895.47;;;15.59;68.48
76611;BME280;65503;48.534;9.062;2023-11-19T09:17:33;96896.81;;;15.82;68.26
76611;BME280;65503;48.534;9.062;2023-11-19T09:19:59;96912.06;;;15.24;68.67
76611;BME280;65503;48.534;9.062;2023-11-19T09:22:26;96907.97;;;14.97;69.92
76611;BME280;65503;48.534;9.062;2023-11-19T09:24:52;96912.50;;;14.54;71.54
76611;BME280;65503;48.534;9.062;2023-11-19T09:27:19;96909.78;;;14.91;70.54
76611;BME280;65503;48.534;9.062;2023-11-19T09:29:45;96912.22;;;15.03;69.94
76611;BME280;65503;48.534;9.062;2023-11-19T09:32:13;96925.78;;;15.16;69.68
76611;BME280;65503;48.534;9.062;2023-11-19T09:34:39;96927.72;;;15.31;68.71
76611;BME280;65503;48.534;9.062;2023-11-19T09:37:06;96926.75;;;15.52;69.03
76611;BME280;65503;48.534;9.062;2023-11-19T09:39:47;96908.44;;;15.56;68.31
76611;BME280;65503;48.534;9.062;2023-11-19T09:42:13;96900.28;;;16.08;67.40
76611;BME280;65503;48.534;9.062;2023-11-19T09:44:42;96915.41;;;16.02;66.96
76611;BME280;65503;48.534;9.062;2023-11-19T09:47:10;96914.56;;;15.61;68.49
76611;BME280;65503;48.534;9.062;2023-11-19T09:49:37;96919.09;;;15.96;66.54
76611;BME280;65503;48.534;9.062;2023-11-19T09:52:05;96923.09;;;15.99;66.74
76611;BME280;65503;48.534;9.062;2023-11-19T09:54:31;96912.50;;;15.99;67.16
76611;BME280;65503;48.534;9.062;2023-11-19T09:56:59;96915.66;;;15.91;67.16
76611;BME280;65503;48.534;9.062;2023-11-19T09:59:30;96915.69;;;16.21;66.15
76611;BME280;65503;48.534;9.062;2023-11-19T10:01:57;96914.09;;;16.05;66.23
76611;BME280;65503;48.534;9.062;2023-11-19T10:04:25;96902.94;;;15.83;66.84
76611;BME280;65503;48.534;9.062;2023-11-19T10:06:54;96899.97;;;15.64;67.63
76611;BME280;65503;48.534;9.062;2023-11-19T10:09:21;96896.28;;;15.75;67.35
76611;BME280;65503;48.534;9.062;2023-11-19T10:11:47;96895.47;;;16.35;65.28
76611;BME280;65503;48.534;9.062;2023-11-19T10:14:16;96898.56;;;16.88;63.65
76611;BME280;65503;48.534;9.062;2023-11-19T10:16:45;96904.91;;;17.02;63.30
76611;BME280;65503;48.534;9.062;2023-11-19T10:19:18;96905.91;;;17.16;62.57
76611;BME280;65503;48.534;9.062;2023-11-19T10:21:46;96910.13;;;17.22;62.86
76611;BME280;65503;48.534;9.062;2023-11-19T10:24:13;96912.34;;;17.00;62.59
76611;BME280;65503;48.534;9.062;2023-11-19T10:26:56;96914.56;;;16.78;63.69
76611;BME280;65503;48.534;9.062;2023-11-19T10:29:23;96906.88;;;16.66;63.94
76611;BME280;65503;48.534;9.062;2023-11-19T10:31:56;96916.72;;;16.45;64.21
76611;BME280;65503;48.534;9.062;2023-11-19T10:34:43;96906.09;;;16.30;64.37
76611;BME280;65503;48.534;9.062;2023-11-19T10:37:27;96898.41;;;16.24;64.79
76611;BME280;65503;48.534;9.062;2023-11-19T10:39:54;96892.81;;;15.80;66.13
76611;BME280;65503;48.534;9.062;2023-11-19T10:42:21;96894.44;;;16.21;65.38
76611;BME280;65503;48.534;9.062;2023-11-19T10:44:48;96904.53;;;16.09;65.64
76611;BME280;65503;48.534;9.062;2023-11-19T10:47:14;96883.81;;;15.96;65.95
76611;BME280;65503;48.534;9.062;2023-11-19T10:49:44;96884.34;;;16.08;65.04
76611;BME280;65503;48.534;9.062;2023-11-19T10:52:17;96876.13;;;15.99;65.59
76611;BME280;65503;48.534;9.062;2023-11-19T10:54:49;96879.56;;;16.25;64.93
76611;BME280;65503;48.534;9.062;2023-11-19T10:57:20;96881.63;;;16.64;63.76
76611;BME280;65503;48.534;9.062;2023-11-19T10:59:48;96873.13;;;16.72;62.93
76611;BME280;65503;48.534;9.062;2023-11-19T11:02:19;96870.25;;;16.12;64.87
76611;BME280;65503;48.534;9.062;2023-11-19T11:04:49;96873.19;;;16.26;64.92
76611;BME280;65503;48.534;9.062;2023-11-19T11:07:18;96877.94;;;16.44;64.59
76611;BME280;65503;48.534;9.062;2023-11-19T11:09:52;96876.53;;;16.82;62.96
76611;BME280;65503;48.534;9.062;2023-11-19T11:12:22;96887.91;;;16.98;62.13
76611;BME280;65503;48.534;9.062;2023-11-19T11:14:50;96883.13;;;16.95;62.16
76611;BME280;65503;48.534;9.062;2023-11-19T11:17:17;96880.53;;;16.85;62.39
76611;BME280;65503;48.534;9.062;2023-11-19T11:19:45;96879.41;;;17.01;62.21
76611;BME280;65503;48.534;9.062;2023-11-19T11:22:11;96876.28;;;16.84;61.65
76611;BME280;65503;48.534;9.062;2023-11-19T11:24:58;96873.00;;;17.02;61.47
76611;BME280;65503;48.534;9.062;2023-11-19T11:30:51;96880.59;;;16.39;62.52
76611;BME280;65503;48.534;9.062;2023-11-19T11:36:19;96880.09;;;16.27;61.28
76611;BME280;65503;48.534;9.062;2023-11-19T11:38:48;96872.41;;;16.10;62.50
76611;BME280;65503;48.534;9.062;2023-11-19T11:41:20;96880.59;;;16.39;62.80
76611;BME280;65503;48.534;9.062;2023-11-19T11:43:50;96875.28;;;16.44;62.75
76611;BME280;65503;48.534;9.062;2023-11-19T11:49:00;96881.72;;;17.18;61.32
76611;BME280;65503;48.534;9.062;2023-11-19T11:57:06;96868.16;;;17.09;60.44
76611;BME280;65503;48.534;9.062;2023-11-19T12:02:07;96872.53;;;17.39;59.75
76611;BME280;65503;48.534;9.062;2023-11-19T12:04:35;96872.25;;;17.46;59.72
76611;BME280;65503;48.534;9.062;2023-11-19T12:07:13;96874.72;;;16.73;61.28
76611;BME280;65503;48.534;9.062;2023-11-19T12:09:41;96875.22;;;16.85;61.61
76611;BME280;65503;48.534;9.062;2023-11-19T12:12:28;96866.19;;;16.71;60.81
76611;BME280;65503;48.534;9.062;2023-11-19T12:20:02;96853.56;;;17.12;59.65
76611;BME280;65503;48.534;9.062;2023-11-19T12:22:29;96852.19;;;17.19;59.66
76611;BME280;65503;48.534;9.062;2023-11-19T12:24:56;96848.63;;;17.34;59.55
76611;BME280;65503;48.534;9.062;2023-11-19T12:27:23;96838.66;;;17.55;59.40
76611;BME280;65503;48.534;9.062;2023-11-19T12:29:49;96843.69;;;17.61;58.38
76611;BME280;65503;48.534;9.062;2023-11-19T12:32:16;96843.63;;;18.05;58.40
76611;BME280;65503;48.534;9.062;2023-11-19T12:34:42;96844.09;;;18.12;57.06
76611;BME280;65503;48.534;9.062;2023-11-19T12:37:10;96844.59;;;17.86;57.88
76611;BME280;65503;48.534;9.062;2023-11-19T12:39:37;96849.03;;;17.95;57.43
76611;BME280;65503;48.534;9.062;2023-11-19T12:42:03;96834.00;;;18.09;57.11
76611;BME280;65503;48.534;9.062;2023-11-19T12:44:30;96840.53;;;17.93;56.99
76611;BME280;65503;48.534;9.062;2023-11-19T12:47:04;96828.94;;;16.81;58.13
76611;BME280;65503;48.534;9.062;2023-11-19T12:49:31;96833.00;;;17.22;58.45
76611;BME280;65503;48.534;9.062;2023-11-19T12:51:57;96837.06;;;17.59;57.71
76611;BME280;65503;48.534;9.062;2023-11-19T12:54:37;96834.06;;;18.04;54.98
76611;BME280;65503;48.534;9.062;2023-11-19T12:57:04;96837.63;;;18.18;53.23
76611;BME280;65503;48.534;9.062;2023-11-19T12:59:31;96827.19;;;17.98;54.74
76611;BME280;65503;48.534;9.062;2023-11-19T13:01:58;96822.97;;;17.92;54.00
76611;BME280;65503;48.534;9.062;2023-11-19T13:04:29;96818.97;;;17.56;54.77
76611;BME280;65503;48.534;9.062;2023-11-19T13:06:59;96823.63;;;16.91;57.56
76611;BME280;65503;48.534;9.062;2023-11-19T13:09:29;96812.94;;;17.01;56.87
76611;BME280;65503;48.534;9.062;2023-11-19T13:11:56;96816.50;;;17.30;55.69
76611;BME280;65503;48.534;9.062;2023-11-19T13:14:23;96804.94;;;17.84;54.57
76611;BME280;65503;48.534;9.062;2023-11-19T13:16:49;96794.69;;;18.25;54.10
76611;BME280;65503;48.534;9.062;2023-11-19T13:19:16;96809.44;;;18.41;52.32
76611;BME280;65503;48.534;9.062;2023-11-19T13:21:45;96797.56;;;17.32;53.98
76611;BME280;65503;48.534;9.062;2023-11-19T13:24:15;96795.66;;;17.38;53.65
76611;BME280;65503;48.534;9.062;2023-11-19T13:26:41;96794.94;;;16.83;55.70